Time;durP1;ratioP1;P1;durP2;ratioP2;P2;SDS_P1;SDS_P2;PMS_P1;PMS_P2;Temp;Humidity;BMP_temperature;BMP_pressure;BME280_temperature;BME280_humidity;BME280_pressure;Samples;Min_cycle;Max_cycle;Signal;HPM_P1;HPM_P2
2023/04/25 00:01:08;;;;;;;;;;;;;;;;;;5032965;28;4900;-58
2023/04/25 00:03:35;;;;;;;;;;;;;;;;;;5044926;28;4521;-59
2023/04/25 00:06:03;;;;;;;;;;;;;;;;;;5043408;28;3392;-58
2023/04/25 00:08:29;;;;;;;;;;;;;;;;;;5035731;28;6367;-57
2023/04/25 00:10:54;;;;;;;;;;;;;;;;;;5037682;28;5042;-57
2023/04/25 00:13:20;;;;;;;;;;;;;;;;;;5031604;28;4539;-57
2023/04/25 00:15:46;;;;;;;;;;;;;;;;;;5048895;28;4663;-57
2023/04/25 00:18:11;;;;;;;;;;;;;;;;;;5051043;28;2005;-58
2023/04/25 00:20:36;;;;;;;;;;;;;;;;;;5050188;28;4624;-58
2023/04/25 00:23:02;;;;;;;;;;;;;;;;;;5064061;28;5043;-58
2023/04/25 00:25:27;;;;;;;;;;;;;;;;;;5050298;28;4594;-58
2023/04/25 00:27:52;;;;;;;;;;;;;;;;;;5049596;28;5089;-58
2023/04/25 00:30:17;;;;;;;;;;;;;;;;;;5038774;28;3194;-58
2023/04/25 00:32:43;;;;;;;;;;;;;;;;;;5046521;28;4651;-58
2023/04/25 00:35:08;;;;;;;;;;;;;;;;;;5049860;28;5013;-58
2023/04/25 00:37:34;;;;;;;;;;;;;;;;;;5044894;28;4686;-58
2023/04/25 00:39:59;;;;;;;;;;;;;;;;;;5046992;28;4721;-57
2023/04/25 00:42:25;;;;;;;;;;;;;;;;;;5049186;28;3112;-57
2023/04/25 00:44:50;;;;;;;;;;;;;;;;;;5045022;28;5114;-57
2023/04/25 00:47:16;;;;;;;;;;;;;;;;;;5043213;28;5062;-59
2023/04/25 00:49:41;;;;;;;;;;;;;;;;;;5047070;28;4780;-58
2023/04/25 00:52:06;;;;;;;;;;;;;;;;;;5049451;28;4452;-58
2023/04/25 00:54:32;;;;;;;;;;;;;;;;;;5044215;28;4469;-58
2023/04/25 00:56:57;;;;;;;;;;;;;;;;;;5047763;28;3252;-59
2023/04/25 00:59:22;;;;;;;;;;;;;;;;;;5062408;28;4930;-58
2023/04/25 01:01:48;;;;;;;;;;;;;;;;;;5039405;28;4527;-58
2023/04/25 01:04:13;;;;;;;;;;;;;;;;;;5049801;28;5077;-58
2023/04/25 01:06:38;;;;;;;;;;;;;;;;;;5049047;28;5129;-57
2023/04/25 01:09:04;;;;;;;;;;;;;;;;;;5043270;28;6216;-58
2023/04/25 01:11:30;;;;;;;;;;;;;;;;;;5041688;28;4469;-58
2023/04/25 01:13:55;;;;;;;;;;;;;;;;;;5046043;28;4975;-58
2023/04/25 01:16:20;;;;;;;;;;;;;;;;;;5040462;28;4611;-58
2023/04/25 01:18:46;;;;;;;;;;;;;;;;;;5048742;28;4626;-58
2023/04/25 01:21:11;;;;;;;;;;;;;;;;;;5047213;28;3301;-58
2023/04/25 01:23:37;;;;;;;;;;;;;;;;;;5042955;28;5031;-58
2023/04/25 01:26:02;;;;;;;;;;;;;;;;;;5045656;28;4553;-58
2023/04/25 01:28:28;;;;;;;;;;;;;;;;;;5048397;28;4538;-58
2023/04/25 01:30:53;;;;;;;;;;;;;;;;;;5048736;28;4691;-59
2023/04/25 01:33:19;;;;;;;;;;;;;;;;;;5047508;28;2152;-58
2023/04/25 01:35:44;;;;;;;;;;;;;;;;;;5044479;28;4676;-58
2023/04/25 01:38:09;;;;;;;;;;;;;;;;;;5036202;28;5042;-58
2023/04/25 01:40:35;;;;;;;;;;;;;;;;;;5043818;28;4566;-58
2023/04/25 01:43:01;;;;;;;;;;;;;;;;;;5027465;28;4490;-59
2023/04/25 01:45:26;;;;;;;;;;;;;;;;;;5041937;28;3080;-59
2023/04/25 01:47:51;;;;;;;;;;;;;;;;;;5047025;28;4424;-59
2023/04/25 01:50:17;;;;;;;;;;;;;;;;;;5043215;28;4626;-59
2023/04/25 01:52:42;;;;;;;;;;;;;;;;;;5035084;28;5455;-59
2023/04/25 01:55:07;;;;;;;;;;;;;;;;;;5046272;28;4540;-59
2023/04/25 01:57:33;;;;;;;;;;;;;;;;;;5047630;28;4637;-58
2023/04/25 01:59:59;;;;;;;;;;;;;;;;;;5048645;28;2003;-59
2023/04/25 02:02:24;;;;;;;;;;;;;;;;;;5046685;28;4668;-58
2023/04/25 02:04:49;;;;;;;;;;;;;;;;;;5039953;28;4634;-58
2023/04/25 02:07:15;;;;;;;;;;;;;;;;;;5041734;28;4788;-59
2023/04/25 02:09:40;;;;;;;;;;;;;;;;;;5044717;28;6454;-58
2023/04/25 02:12:07;;;;;;;;;;;;;;;;;;5045398;28;1120;-58
2023/04/25 02:14:32;;;;;;;;;;;;;;;;;;5047503;28;4641;-58
2023/04/25 02:16:58;;;;;;;;;;;;;;;;;;5033543;28;4713;-58
2023/04/25 02:19:23;;;;;;;;;;;;;;;;;;5047835;28;4632;-59
2023/04/25 02:21:48;;;;;;;;;;;;;;;;;;5046195;28;5022;-58
2023/04/25 02:24:13;;;;;;;;;;;;;;;;;;5046961;28;1324;-58
2023/04/25 02:26:39;;;;;;;;;;;;;;;;;;5035361;28;4551;-58
2023/04/25 02:29:04;;;;;;;;;;;;;;;;;;5043999;28;4484;-58
2023/04/25 02:31:29;;;;;;;;;;;;;;;;;;5038955;28;4870;-58
2023/04/25 02:33:55;;;;;;;;;;;;;;;;;;5046388;28;4682;-58
2023/04/25 02:36:20;;;;;;;;;;;;;;;;;;5054177;28;3191;-58
2023/04/25 02:38:45;;;;;;;;;;;;;;;;;;5042026;28;4583;-58
2023/04/25 02:41:11;;;;;;;;;;;;;;;;;;5055370;28;4492;-58
2023/04/25 02:43:36;;;;;;;;;;;;;;;;;;5028562;28;4484;-58
2023/04/25 02:46:01;;;;;;;;;;;;;;;;;;5036686;28;5561;-58
2023/04/25 02:48:26;;;;;;;;;;;;;;;;;;5048396;28;1168;-58
2023/04/25 02:50:52;;;;;;;;;;;;;;;;;;5034942;28;4572;-58
2023/04/25 02:53:17;;;;;;;;;;;;;;;;;;5047759;28;5095;-58
2023/04/25 02:55:42;;;;;;;;;;;;;;;;;;5046919;28;5180;-58
2023/04/25 02:58:08;;;;;;;;;;;;;;;;;;5040212;28;4549;-58
2023/04/25 03:00:33;;;;;;;;;;;;;;;;;;5041291;28;4635;-58
2023/04/25 03:02:58;;;;;;;;;;;;;;;;;;5046492;28;1252;-58
2023/04/25 03:05:23;;;;;;;;;;;;;;;;;;5047351;28;4444;-58
2023/04/25 03:07:49;;;;;;;;;;;;;;;;;;5047206;28;4652;-58
2023/04/25 03:10:14;;;;;;;;;;;;;;;;;;5035823;28;6629;-58
2023/04/25 03:12:39;;;;;;;;;;;;;;;;;;5040654;28;4527;-58
2023/04/25 03:15:05;;;;;;;;;;;;;;;;;;5042509;28;3179;-58
2023/04/25 03:17:30;;;;;;;;;;;;;;;;;;5042210;28;5002;-58
2023/04/25 03:19:55;;;;;;;;;;;;;;;;;;5045033;28;4537;-58
2023/04/25 03:22:21;;;;;;;;;;;;;;;;;;5037847;28;5152;-58
2023/04/25 03:24:47;;;;;;;;;;;;;;;;;;5046929;28;5104;-58
2023/04/25 03:27:12;;;;;;;;;;;;;;;;;;5047720;28;1523;-58
2023/04/25 03:29:37;;;;;;;;;;;;;;;;;;5046822;28;5087;-58
2023/04/25 03:32:02;;;;;;;;;;;;;;;;;;5035246;28;5046;-58
2023/04/25 03:34:28;;;;;;;;;;;;;;;;;;5050388;28;5193;-58
2023/04/25 03:36:53;;;;;;;;;;;;;;;;;;5038653;28;4744;-58
2023/04/25 03:39:19;;;;;;;;;;;;;;;;;;5050656;28;3148;-58
2023/04/25 03:41:44;;;;;;;;;;;;;;;;;;5038712;28;4634;-57
2023/04/25 03:44:09;;;;;;;;;;;;;;;;;;5030963;28;4451;-57
2023/04/25 03:46:34;;;;;;;;;;;;;;;;;;5040601;28;5069;-58
2023/04/25 03:49:00;;;;;;;;;;;;;;;;;;5050807;28;4465;-58
2023/04/25 03:51:25;;;;;;;;;;;;;;;;;;5039103;28;3226;-58
2023/04/25 03:53:51;;;;;;;;;;;;;;;;;;5051069;28;4548;-58
2023/04/25 03:56:16;;;;;;;;;;;;;;;;;;5055045;28;4706;-57
2023/04/25 03:58:41;;;;;;;;;;;;;;;;;;5050415;28;4481;-58
2023/04/25 04:01:07;;;;;;;;;;;;;;;;;;5048608;28;4950;-58
2023/04/25 04:03:34;;;;;;;;;;;;;;;;;;5049467;28;4708;-58
2023/04/25 04:05:59;;;;;;;;;;;;;;;;;;5039297;28;3453;-58
2023/04/25 04:08:25;;;;;;;;;;;;;;;;;;5049598;28;6529;-57
2023/04/25 04:10:50;;;;;;;;;;;;;;;;;;5047045;28;4561;-58
2023/04/25 04:13:15;;;;;;;;;;;;;;;;;;5050070;28;4663;-58
2023/04/25 04:15:40;;;;;;;;;;;;;;;;;;5047975;28;5175;-58
2023/04/25 04:18:06;;;;;;;;;;;;;;;;;;5049567;28;2001;-58
2023/04/25 04:20:31;;;;;;;;;;;;;;;;;;5036694;28;4451;-58
2023/04/25 04:22:56;;;;;;;;;;;;;;;;;;5049222;28;4990;-58
2023/04/25 04:25:21;;;;;;;;;;;;;;;;;;5048758;28;4674;-58
2023/04/25 04:27:47;;;;;;;;;;;;;;;;;;5044103;28;4704;-58
2023/04/25 04:30:12;;;;;;;;;;;;;;;;;;5042282;28;1225;-58
2023/04/25 04:32:38;;;;;;;;;;;;;;;;;;5049584;28;4652;-58
2023/04/25 04:35:04;;;;;;;;;;;;;;;;;;5044848;28;4526;-58
2023/04/25 04:37:29;;;;;;;;;;;;;;;;;;5047733;28;4529;-58
2023/04/25 04:39:55;;;;;;;;;;;;;;;;;;5046114;28;4603;-59
2023/04/25 04:42:21;;;;;;;;;;;;;;;;;;5049614;28;3381;-57
2023/04/25 04:44:46;;;;;;;;;;;;;;;;;;5048753;28;4954;-58
2023/04/25 04:47:13;;;;;;;;;;;;;;;;;;5056852;28;4485;-59
2023/04/25 04:49:39;;;;;;;;;;;;;;;;;;5048545;28;4505;-59
2023/04/25 04:52:04;;;;;;;;;;;;;;;;;;5038955;28;4495;-59
2023/04/25 04:54:30;;;;;;;;;;;;;;;;;;5048297;28;4539;-59
2023/04/25 04:56:55;;;;;;;;;;;;;;;;;;5037803;28;3238;-58
2023/04/25 04:59:21;;;;;;;;;;;;;;;;;;5039858;28;4725;-58
2023/04/25 05:01:46;;;;;;;;;;;;;;;;;;5041423;28;4531;-58
2023/04/25 05:04:11;;;;;;;;;;;;;;;;;;5040259;28;4722;-59
2023/04/25 05:06:37;;;;;;;;;;;;;;;;;;5045106;28;5001;-59
2023/04/25 05:09:02;;;;;;;;;;;;;;;;;;5040719;28;6277;-58
2023/04/25 05:11:28;;;;;;;;;;;;;;;;;;5045507;28;4452;-59
2023/04/25 05:13:53;;;;;;;;;;;;;;;;;;5043899;28;4767;-58
2023/04/25 05:16:18;;;;;;;;;;;;;;;;;;5062293;28;4586;-59
2023/04/25 05:18:44;;;;;;;;;;;;;;;;;;5042048;28;5305;-58
2023/04/25 05:21:09;;;;;;;;;;;;;;;;;;5046709;28;2133;-58
2023/04/25 05:23:34;;;;;;;;;;;;;;;;;;5038281;28;4911;-58
2023/04/25 05:25:59;;;;;;;;;;;;;;;;;;5048862;28;5009;-57
2023/04/25 05:28:25;;;;;;;;;;;;;;;;;;5045639;28;4653;-57
2023/04/25 05:30:50;;;;;;;;;;;;;;;;;;5035390;28;4528;-57
2023/04/25 05:33:15;;;;;;;;;;;;;;;;;;5037866;28;3429;-58
2023/04/25 05:35:41;;;;;;;;;;;;;;;;;;5044494;28;4526;-57
2023/04/25 05:38:06;;;;;;;;;;;;;;;;;;5059000;28;4404;-58
2023/04/25 05:40:31;;;;;;;;;;;;;;;;;;5045452;28;4892;-58
2023/04/25 05:42:57;;;;;;;;;;;;;;;;;;5039153;28;4644;-59
2023/04/25 05:45:22;;;;;;;;;;;;;;;;;;5040877;28;3163;-58
2023/04/25 05:47:47;;;;;;;;;;;;;;;;;;5046169;28;4795;-58
2023/04/25 05:50:12;;;;;;;;;;;;;;;;;;5045742;28;4906;-58
2023/04/25 05:52:38;;;;;;;;;;;;;;;;;;5047927;28;5044;-58
2023/04/25 05:55:04;;;;;;;;;;;;;;;;;;5040398;28;4643;-58
2023/04/25 05:57:29;;;;;;;;;;;;;;;;;;5042314;28;4879;-58
2023/04/25 05:59:54;;;;;;;;;;;;;;;;;;5048186;28;1976;-58
2023/04/25 06:02:20;;;;;;;;;;;;;;;;;;5046119;28;4671;-57
2023/04/25 06:04:46;;;;;;;;;;;;;;;;;;5041021;28;5020;-58
2023/04/25 06:07:11;;;;;;;;;;;;;;;;;;5042613;28;4754;-58
2023/04/25 06:09:36;;;;;;;;;;;;;;;;;;5036228;28;6420;-58
2023/04/25 06:12:01;;;;;;;;;;;;;;;;;;5043367;28;1105;-58
2023/04/25 06:14:27;;;;;;;;;;;;;;;;;;5047688;28;4640;-58
2023/04/25 06:16:52;;;;;;;;;;;;;;;;;;5047746;28;4656;-58
2023/04/25 06:19:17;;;;;;;;;;;;;;;;;;5036000;28;4929;-57
2023/04/25 06:21:43;;;;;;;;;;;;;;;;;;5045050;28;4458;-58
2023/04/25 06:24:08;;;;;;;;;;;;;;;;;;5047809;28;2374;-58
2023/04/25 06:26:33;;;;;;;;;;;;;;;;;;5047563;28;4627;-58
2023/04/25 06:28:59;;;;;;;;;;;;;;;;;;5041159;28;4655;-57
2023/04/25 06:31:25;;;;;;;;;;;;;;;;;;5036878;28;5165;-58
2023/04/25 06:33:50;;;;;;;;;;;;;;;;;;5046769;28;5088;-58
2023/04/25 06:36:15;;;;;;;;;;;;;;;;;;5047974;28;1220;-58
2023/04/25 06:38:40;;;;;;;;;;;;;;;;;;5045084;28;5374;-58
2023/04/25 06:41:06;;;;;;;;;;;;;;;;;;5032213;28;5065;-57
2023/04/25 06:43:33;;;;;;;;;;;;;;;;;;5040822;28;4993;-59
2023/04/25 06:45:58;;;;;;;;;;;;;;;;;;5039911;28;4584;-57
2023/04/25 06:48:24;;;;;;;;;;;;;;;;;;5046813;28;3282;-57
2023/04/25 06:50:49;;;;;;;;;;;;;;;;;;5038224;28;4781;-57
2023/04/25 06:53:14;;;;;;;;;;;;;;;;;;5047271;28;4523;-57
2023/04/25 06:55:40;;;;;;;;;;;;;;;;;;5047456;28;5088;-57
2023/04/25 06:58:05;;;;;;;;;;;;;;;;;;5045320;28;4682;-57
2023/04/25 07:00:31;;;;;;;;;;;;;;;;;;5039985;28;4496;-58
2023/04/25 07:02:57;;;;;;;;;;;;;;;;;;5043276;28;3249;-57
2023/04/25 07:05:22;;;;;;;;;;;;;;;;;;5038829;28;4500;-57
2023/04/25 07:07:47;;;;;;;;;;;;;;;;;;5039327;28;4807;-57
2023/04/25 07:10:13;;;;;;;;;;;;;;;;;;5040597;28;6668;-57
2023/04/25 07:12:38;;;;;;;;;;;;;;;;;;5042980;28;5149;-57
2023/04/25 07:15:05;;;;;;;;;;;;;;;;;;5046828;28;3186;-57
2023/04/25 07:17:31;;;;;;;;;;;;;;;;;;5042387;28;5101;-57
2023/04/25 07:19:56;;;;;;;;;;;;;;;;;;5051258;28;4667;-57
2023/04/25 07:22:22;;;;;;;;;;;;;;;;;;5050698;28;4495;-58
2023/04/25 07:24:48;;;;;;;;;;;;;;;;;;5050693;28;4938;-57
2023/04/25 07:27:14;;;;;;;;;;;;;;;;;;5050718;28;2039;-58
2023/04/25 07:29:39;;;;;;;;;;;;;;;;;;5042611;28;4470;-57
2023/04/25 07:32:04;;;;;;;;;;;;;;;;;;5043879;28;5066;-57
2023/04/25 07:34:30;;;;;;;;;;;;;;;;;;5043104;28;5286;-58
2023/04/25 07:36:55;;;;;;;;;;;;;;;;;;5040297;28;4630;-59
2023/04/25 07:39:21;;;;;;;;;;;;;;;;;;5041263;28;3343;-59
2023/04/25 07:41:46;;;;;;;;;;;;;;;;;;5044944;28;4578;-59
2023/04/25 07:44:11;;;;;;;;;;;;;;;;;;5040427;28;4484;-59
2023/04/25 07:46:36;;;;;;;;;;;;;;;;;;5037486;28;4708;-58
2023/04/25 07:49:02;;;;;;;;;;;;;;;;;;5047185;28;5189;-58
2023/04/25 07:51:27;;;;;;;;;;;;;;;;;;5041865;28;3367;-58
2023/04/25 07:53:52;;;;;;;;;;;;;;;;;;5037796;28;5068;-59
2023/04/25 07:56:18;;;;;;;;;;;;;;;;;;5042770;28;5036;-60
2023/04/25 07:58:43;;;;;;;;;;;;;;;;;;5048614;28;4607;-59
2023/04/25 08:01:08;;;;;;;;;;;;;;;;;;5046286;28;5024;-59
2023/04/25 08:03:34;;;;;;;;;;;;;;;;;;5036798;28;5019;-59
2023/04/25 08:05:59;;;;;;;;;;;;;;;;;;5038006;28;3410;-59
2023/04/25 08:08:24;;;;;;;;;;;;;;;;;;5047804;28;6155;-59
2023/04/25 08:10:50;;;;;;;;;;;;;;;;;;5036341;28;5102;-59
2023/04/25 08:13:15;;;;;;;;;;;;;;;;;;5039123;28;4524;-59
2023/04/25 08:15:41;;;;;;;;;;;;;;;;;;5048624;28;4690;-58
2023/04/25 08:18:06;;;;;;;;;;;;;;;;;;5048434;28;1930;-58
2023/04/25 08:20:31;;;;;;;;;;;;;;;;;;5045188;28;4449;-58
2023/04/25 08:22:56;;;;;;;;;;;;;;;;;;5046784;28;4651;-58
2023/04/25 08:25:21;;;;;;;;;;;;;;;;;;5035230;28;4805;-59
2023/04/25 08:27:47;;;;;;;;;;;;;;;;;;5042846;28;4741;-58
2023/04/25 08:30:12;;;;;;;;;;;;;;;;;;5040116;28;3442;-57
2023/04/25 08:32:40;;;;;;;;;;;;;;;;;;5047846;28;4740;-59
2023/04/25 08:35:06;;;;;;;;;;;;;;;;;;5040351;28;4553;-58
2023/04/25 08:37:32;;;;;;;;;;;;;;;;;;5038302;28;4692;-58
2023/04/25 08:39:57;;;;;;;;;;;;;;;;;;5047384;28;5106;-64
2023/04/25 08:42:22;;;;;;;;;;;;;;;;;;5045987;28;3229;-59
2023/04/25 08:44:48;;;;;;;;;;;;;;;;;;5053913;28;4980;-59
2023/04/25 08:47:13;;;;;;;;;;;;;;;;;;5048848;28;5066;-59
2023/04/25 08:49:39;;;;;;;;;;;;;;;;;;5061681;28;5182;-59
2023/04/25 08:52:07;;;;;;;;;;;;;;;;;;5036332;28;4472;-59
2023/04/25 08:54:32;;;;;;;;;;;;;;;;;;5037333;28;5057;-58
2023/04/25 08:56:59;;;;;;;;;;;;;;;;;;5048858;28;1100;-58
2023/04/25 08:59:24;;;;;;;;;;;;;;;;;;5061119;28;4477;-59
2023/04/25 09:01:51;;;;;;;;;;;;;;;;;;5060564;28;4790;-59
2023/04/25 09:04:16;;;;;;;;;;;;;;;;;;5049067;28;4551;-59
2023/04/25 09:06:41;;;;;;;;;;;;;;;;;;5063813;28;4632;-59
2023/04/25 09:09:07;;;;;;;;;;;;;;;;;;5048511;28;6485;-59
2023/04/25 09:11:32;;;;;;;;;;;;;;;;;;5049100;28;4626;-59
2023/04/25 09:14:14;;;;;;;;;;;;;;;;;;5048720;28;5586;-59
2023/04/25 09:16:59;;;;;;;;;;;;;;;;;;5048344;28;4681;-59
2023/04/25 09:19:27;;;;;;;;;;;;;;;;;;5037437;28;4655;-59
2023/04/25 09:21:56;;;;;;;;;;;;;;;;;;5047137;28;5130;-59
2023/04/25 09:24:37;;;;;;;;;;;;;;;;;;5049339;28;1108;-59
2023/04/25 09:27:03;;;;;;;;;;;;;;;;;;5021571;28;4918;-59
2023/04/25 09:29:32;;;;;;;;;;;;;;;;;;5055607;28;5101;-59
2023/04/25 09:32:11;;;;;;;;;;;;;;;;;;5028903;28;4974;-59
2023/04/25 09:34:40;;;;;;;;;;;;;;;;;;5028020;28;5089;-57
2023/04/25 09:37:06;;;;;;;;;;;;;;;;;;5057078;28;4581;-58
2023/04/25 09:39:32;;;;;;;;;;;;;;;;;;5028572;28;5041;-58
2023/04/25 09:41:57;;;;;;;;;;;;;;;;;;5025714;28;1082;-58
2023/04/25 09:44:23;;;;;;;;;;;;;;;;;;5017055;28;4448;-58
2023/04/25 09:46:52;;;;;;;;;;;;;;;;;;5027748;28;4501;-58
2023/04/25 09:49:19;;;;;;;;;;;;;;;;;;5027277;28;4929;-58
2023/04/25 09:51:53;;;;;;;;;;;;;;;;;;5026999;28;4537;-58
2023/04/25 09:54:18;;;;;;;;;;;;;;;;;;5027497;28;1099;-58
2023/04/25 09:56:44;;;;;;;;;;;;;;;;;;5027993;28;4575;-58
2023/04/25 09:59:09;;;;;;;;;;;;;;;;;;5024321;28;4756;-58
2023/04/25 10:01:34;;;;;;;;;;;;;;;;;;5021878;28;5892;-58
2023/04/25 10:04:00;;;;;;;;;;;;;;;;;;5059800;28;4716;-59
2023/04/25 10:06:26;;;;;;;;;;;;;;;;;;5025268;28;3379;-58
2023/04/25 10:08:52;;;;;;;;;;;;;;;;;;5013272;28;6648;-58
2023/04/25 10:11:18;;;;;;;;;;;;;;;;;;5036373;28;6276;-58
2023/04/25 10:13:43;;;;;;;;;;;;;;;;;;5024814;28;4814;-58
2023/04/25 10:16:09;;;;;;;;;;;;;;;;;;5016973;28;4666;-59
2023/04/25 10:18:34;;;;;;;;;;;;;;;;;;5024900;28;4668;-58
2023/04/25 10:21:00;;;;;;;;;;;;;;;;;;5028327;28;1262;-58
2023/04/25 10:23:25;;;;;;;;;;;;;;;;;;5013534;28;4908;-58
2023/04/25 10:25:51;;;;;;;;;;;;;;;;;;5022260;28;4464;-57
2023/04/25 10:28:16;;;;;;;;;;;;;;;;;;5021183;28;4773;-58
2023/04/25 10:31:00;;;;;;;;;;;;;;;;;;5028182;28;5144;-58
2023/04/25 10:33:35;;;;;;;;;;;;;;;;;;5018322;28;3248;-58
2023/04/25 10:36:13;;;;;;;;;;;;;;;;;;5029404;28;5058;-58
2023/04/25 10:38:39;;;;;;;;;;;;;;;;;;5037011;28;4623;-58
2023/04/25 10:41:08;;;;;;;;;;;;;;;;;;5041203;28;4630;-58
2023/04/25 10:43:40;;;;;;;;;;;;;;;;;;5035400;28;5224;-58
2023/04/25 10:46:38;;;;;;;;;;;;;;;;;;5042648;28;4644;-58
2023/04/25 10:49:03;;;;;;;;;;;;;;;;;;5020426;28;4459;-57
2023/04/25 10:51:30;;;;;;;;;;;;;;;;;;5040136;28;5107;-56
2023/04/25 10:53:56;;;;;;;;;;;;;;;;;;5051532;28;3185;-56
2023/04/25 10:56:21;;;;;;;;;;;;;;;;;;5047192;28;4606;-58
2023/04/25 10:58:46;;;;;;;;;;;;;;;;;;5045255;28;5636;-57
2023/04/25 11:01:12;;;;;;;;;;;;;;;;;;5037282;28;5217;-57
2023/04/25 11:03:41;;;;;;;;;;;;;;;;;;5048374;28;4673;-56
2023/04/25 11:06:07;;;;;;;;;;;;;;;;;;5037197;28;3252;-58
2023/04/25 11:08:37;;;;;;;;;;;;;;;;;;5038241;28;6482;-57
2023/04/25 11:11:02;;;;;;;;;;;;;;;;;;5041489;28;4688;-57
2023/04/25 11:13:30;;;;;;;;;;;;;;;;;;5037099;28;5221;-57
2023/04/25 11:15:55;;;;;;;;;;;;;;;;;;5041044;28;4750;-64
2023/04/25 11:18:21;;;;;;;;;;;;;;;;;;5040726;28;3177;-60
2023/04/25 11:20:47;;;;;;;;;;;;;;;;;;5029724;28;4659;-62
2023/04/25 11:23:13;;;;;;;;;;;;;;;;;;5015304;28;4466;-64
2023/04/25 11:25:38;;;;;;;;;;;;;;;;;;5023690;28;5009;-62
2023/04/25 11:28:03;;;;;;;;;;;;;;;;;;5022200;28;5064;-64
2023/04/25 11:30:30;;;;;;;;;;;;;;;;;;5054171;28;5271;-62
2023/04/25 11:32:55;;;;;;;;;;;;;;;;;;5022290;28;3516;-62
2023/04/25 11:35:22;;;;;;;;;;;;;;;;;;5030639;28;4595;-63
2023/04/25 11:37:48;;;;;;;;;;;;;;;;;;5028176;28;4947;-61
2023/04/25 11:40:13;;;;;;;;;;;;;;;;;;5056777;28;5049;-62
2023/04/25 11:42:39;;;;;;;;;;;;;;;;;;5022403;28;4507;-63
2023/04/25 11:45:05;;;;;;;;;;;;;;;;;;5028242;28;1079;-62
2023/04/25 11:47:31;;;;;;;;;;;;;;;;;;5029374;28;4966;-63
2023/04/25 11:49:57;;;;;;;;;;;;;;;;;;5028730;28;4464;-64
2023/04/25 11:52:22;;;;;;;;;;;;;;;;;;5029323;28;4694;-63
2023/04/25 11:54:48;;;;;;;;;;;;;;;;;;5027309;28;4634;-62
2023/04/25 11:57:13;;;;;;;;;;;;;;;;;;5029634;28;1219;-63
2023/04/25 11:59:38;;;;;;;;;;;;;;;;;;5029556;28;4486;-63
2023/04/25 12:02:06;;;;;;;;;;;;;;;;;;5027462;28;6159;-62
2023/04/25 12:04:32;;;;;;;;;;;;;;;;;;5030024;28;4457;-62
2023/04/25 12:06:57;;;;;;;;;;;;;;;;;;5030420;28;4530;-62
2023/04/25 12:09:30;;;;;;;;;;;;;;;;;;5022858;28;6262;-62
2023/04/25 12:11:55;;;;;;;;;;;;;;;;;;5029394;28;5927;-63
2023/04/25 12:14:27;;;;;;;;;;;;;;;;;;5024863;28;4968;-62
2023/04/25 12:16:52;;;;;;;;;;;;;;;;;;5031421;28;4824;-60
2023/04/25 12:19:18;;;;;;;;;;;;;;;;;;5017261;28;4687;-63
2023/04/25 12:21:44;;;;;;;;;;;;;;;;;;5026397;28;4853;-64
2023/04/25 12:24:13;;;;;;;;;;;;;;;;;;5028438;28;2824;-64
2023/04/25 12:26:47;;;;;;;;;;;;;;;;;;5029743;28;4687;-62
2023/04/25 12:29:19;;;;;;;;;;;;;;;;;;5029335;28;4582;-64
2023/04/25 12:31:45;;;;;;;;;;;;;;;;;;5029661;28;5101;-62
2023/04/25 12:34:10;;;;;;;;;;;;;;;;;;5029454;28;4454;-62
2023/04/25 12:36:35;;;;;;;;;;;;;;;;;;5029736;28;4622;-62
2023/04/25 12:39:04;;;;;;;;;;;;;;;;;;5030223;28;1914;-63
2023/04/25 12:41:29;;;;;;;;;;;;;;;;;;5030251;28;4443;-61
2023/04/25 12:43:54;;;;;;;;;;;;;;;;;;5011687;28;5067;-61
2023/04/25 12:46:20;;;;;;;;;;;;;;;;;;5022533;28;5018;-63
2023/04/25 12:48:45;;;;;;;;;;;;;;;;;;5029847;28;4554;-63
2023/04/25 12:51:10;;;;;;;;;;;;;;;;;;5029006;28;1136;-61
2023/04/25 12:53:37;;;;;;;;;;;;;;;;;;5029655;28;4669;-62
2023/04/25 12:56:02;;;;;;;;;;;;;;;;;;5028715;28;4424;-61
2023/04/25 12:58:28;;;;;;;;;;;;;;;;;;5031174;28;4499;-62
2023/04/25 13:00:53;;;;;;;;;;;;;;;;;;5029537;28;4909;-63
2023/04/25 13:03:18;;;;;;;;;;;;;;;;;;5026523;28;1420;-62
2023/04/25 13:05:43;;;;;;;;;;;;;;;;;;5029082;28;4499;-62
2023/04/25 13:08:09;;;;;;;;;;;;;;;;;;5028806;28;5035;-62
2023/04/25 13:10:35;;;;;;;;;;;;;;;;;;5023142;28;6538;-62
2023/04/25 13:13:01;;;;;;;;;;;;;;;;;;5028928;28;4628;-63
2023/04/25 13:15:26;;;;;;;;;;;;;;;;;;5030343;28;1157;-62
2023/04/25 13:17:52;;;;;;;;;;;;;;;;;;5016062;28;4609;-62
2023/04/25 13:20:18;;;;;;;;;;;;;;;;;;5028896;28;5124;-62
2023/04/25 13:22:45;;;;;;;;;;;;;;;;;;5029140;28;4832;-63
2023/04/25 13:25:10;;;;;;;;;;;;;;;;;;5028988;28;4457;-61
2023/04/25 13:27:38;;;;;;;;;;;;;;;;;;5017102;28;5045;-61
2023/04/25 13:30:07;;;;;;;;;;;;;;;;;;5028797;28;1738;-62
2023/04/25 13:32:38;;;;;;;;;;;;;;;;;;5028702;28;4622;-61
2023/04/25 13:35:04;;;;;;;;;;;;;;;;;;5015899;28;4657;-63
2023/04/25 13:37:30;;;;;;;;;;;;;;;;;;5028786;28;4977;-66
2023/04/25 13:39:56;;;;;;;;;;;;;;;;;;5029095;28;4903;-62
2023/04/25 13:42:21;;;;;;;;;;;;;;;;;;5029717;28;1191;-61
2023/04/25 13:44:46;;;;;;;;;;;;;;;;;;5028788;28;4668;-62
2023/04/25 13:47:12;;;;;;;;;;;;;;;;;;5016685;28;4501;-62
2023/04/25 13:49:37;;;;;;;;;;;;;;;;;;5028853;28;4987;-62
2023/04/25 13:52:02;;;;;;;;;;;;;;;;;;5028322;28;4592;-62
2023/04/25 13:54:27;;;;;;;;;;;;;;;;;;5016573;28;1262;-62
2023/04/25 13:56:58;;;;;;;;;;;;;;;;;;5028094;28;4802;-62
2023/04/25 13:59:23;;;;;;;;;;;;;;;;;;5018247;28;4704;-63
2023/04/25 14:01:48;;;;;;;;;;;;;;;;;;5022870;28;4450;-62
2023/04/25 14:04:14;;;;;;;;;;;;;;;;;;5025708;28;4981;-63
2023/04/25 14:06:39;;;;;;;;;;;;;;;;;;5028062;28;4974;-64
2023/04/25 14:09:06;;;;;;;;;;;;;;;;;;5027075;28;6526;-64
2023/04/25 14:11:31;;;;;;;;;;;;;;;;;;5026346;28;4449;-62
2023/04/25 14:13:56;;;;;;;;;;;;;;;;;;5027817;28;4530;-61
2023/04/25 14:16:23;;;;;;;;;;;;;;;;;;5026489;28;4684;-62
2023/04/25 14:18:48;;;;;;;;;;;;;;;;;;5028013;28;4516;-62
2023/04/25 14:21:13;;;;;;;;;;;;;;;;;;5029220;28;1384;-62
2023/04/25 14:23:38;;;;;;;;;;;;;;;;;;5028163;28;4658;-61
2023/04/25 14:26:04;;;;;;;;;;;;;;;;;;5028357;28;4437;-64
2023/04/25 14:28:29;;;;;;;;;;;;;;;;;;5026275;28;4511;-62
2023/04/25 14:30:54;;;;;;;;;;;;;;;;;;5059275;28;4620;-62
2023/04/25 14:33:19;;;;;;;;;;;;;;;;;;5028840;28;1145;-62
2023/04/25 14:35:45;;;;;;;;;;;;;;;;;;5027885;28;4895;-63
2023/04/25 14:38:10;;;;;;;;;;;;;;;;;;5026718;28;4845;-62
2023/04/25 14:40:37;;;;;;;;;;;;;;;;;;5016469;28;4523;-61
2023/04/25 14:43:02;;;;;;;;;;;;;;;;;;5047960;28;5179;-61
2023/04/25 14:45:27;;;;;;;;;;;;;;;;;;5027208;28;1084;-61
2023/04/25 14:47:53;;;;;;;;;;;;;;;;;;5027901;28;4635;-62
2023/04/25 14:50:18;;;;;;;;;;;;;;;;;;5027717;28;4490;-63
2023/04/25 14:52:44;;;;;;;;;;;;;;;;;;5028230;28;4662;-61
2023/04/25 14:55:10;;;;;;;;;;;;;;;;;;5027920;28;4535;-62
2023/04/25 14:57:35;;;;;;;;;;;;;;;;;;5028929;28;4687;-63
2023/04/25 15:00:00;;;;;;;;;;;;;;;;;;5028624;28;1906;-64
2023/04/25 15:02:26;;;;;;;;;;;;;;;;;;5035786;28;5186;-63
2023/04/25 15:04:51;;;;;;;;;;;;;;;;;;5025563;28;4454;-61
2023/04/25 15:07:17;;;;;;;;;;;;;;;;;;5026262;28;4550;-61
2023/04/25 15:09:42;;;;;;;;;;;;;;;;;;5022329;28;6384;-62
2023/04/25 15:12:07;;;;;;;;;;;;;;;;;;5026585;28;1118;-62
2023/04/25 15:14:33;;;;;;;;;;;;;;;;;;5026305;28;4620;-62
2023/04/25 15:16:59;;;;;;;;;;;;;;;;;;5019372;28;4560;-63
2023/04/25 15:19:24;;;;;;;;;;;;;;;;;;5027099;28;5168;-63
2023/04/25 15:21:49;;;;;;;;;;;;;;;;;;5027403;28;4472;-64
2023/04/25 15:24:15;;;;;;;;;;;;;;;;;;5028385;28;1164;-63
2023/04/25 15:26:41;;;;;;;;;;;;;;;;;;5026386;28;4645;-62
2023/04/25 15:29:06;;;;;;;;;;;;;;;;;;5060648;28;4883;-63
2023/04/25 15:31:31;;;;;;;;;;;;;;;;;;5029563;28;4473;-63
2023/04/25 15:33:57;;;;;;;;;;;;;;;;;;5031185;28;4489;-64
2023/04/25 15:36:22;;;;;;;;;;;;;;;;;;5031405;28;1164;-62
2023/04/25 15:38:47;;;;;;;;;;;;;;;;;;5031347;28;4460;-63
2023/04/25 15:41:12;;;;;;;;;;;;;;;;;;5030364;28;5014;-62
2023/04/25 15:43:39;;;;;;;;;;;;;;;;;;5014793;28;4516;-62
2023/04/25 15:46:05;;;;;;;;;;;;;;;;;;5021306;28;4696;-63
2023/04/25 15:48:31;;;;;;;;;;;;;;;;;;5027006;28;4812;-64
2023/04/25 15:50:56;;;;;;;;;;;;;;;;;;5011703;28;1285;-63
2023/04/25 15:53:22;;;;;;;;;;;;;;;;;;5028221;28;4633;-62
2023/04/25 15:55:47;;;;;;;;;;;;;;;;;;5051915;28;4586;-64
2023/04/25 15:58:12;;;;;;;;;;;;;;;;;;5029571;28;5293;-61
2023/04/25 16:00:39;;;;;;;;;;;;;;;;;;5030814;28;4664;-61
2023/04/25 16:03:04;;;;;;;;;;;;;;;;;;5029037;28;1280;-61
2023/04/25 16:05:30;;;;;;;;;;;;;;;;;;5029536;28;4496;-61
2023/04/25 16:07:55;;;;;;;;;;;;;;;;;;5027202;28;5409;-62
2023/04/25 16:10:20;;;;;;;;;;;;;;;;;;5022261;28;6614;-62
2023/04/25 16:12:49;;;;;;;;;;;;;;;;;;5027851;28;5181;-61
2023/04/25 16:15:14;;;;;;;;;;;;;;;;;;5030795;28;1222;-60
2023/04/25 16:17:40;;;;;;;;;;;;;;;;;;5023220;28;5101;-61
2023/04/25 16:20:09;;;;;;;;;;;;;;;;;;5030167;28;4604;-61
2023/04/25 16:22:37;;;;;;;;;;;;;;;;;;5025570;28;4943;-61
2023/04/25 16:25:03;;;;;;;;;;;;;;;;;;5027159;28;4638;-61
2023/04/25 16:27:28;;;;;;;;;;;;;;;;;;5029077;28;1085;-62
2023/04/25 16:29:53;;;;;;;;;;;;;;;;;;5036403;28;5083;-61
2023/04/25 16:32:18;;;;;;;;;;;;;;;;;;5048247;28;4462;-61
2023/04/25 16:34:44;;;;;;;;;;;;;;;;;;5048167;28;5015;-61
2023/04/25 16:37:09;;;;;;;;;;;;;;;;;;5049025;28;6006;-62
2023/04/25 16:39:35;;;;;;;;;;;;;;;;;;5049156;28;4630;-61
2023/04/25 16:42:00;;;;;;;;;;;;;;;;;;5050113;28;1182;-66
2023/04/25 16:44:25;;;;;;;;;;;;;;;;;;5049840;28;4636;-62
2023/04/25 16:46:51;;;;;;;;;;;;;;;;;;5047938;28;4594;-62
2023/04/25 16:49:16;;;;;;;;;;;;;;;;;;5049589;28;4540;-62
2023/04/25 16:51:41;;;;;;;;;;;;;;;;;;5049443;28;4662;-61
2023/04/25 16:54:07;;;;;;;;;;;;;;;;;;5048298;28;1293;-61